GCXO/TFN METAR and TAF weather

Enter ICAO airport designator
Station Type Date Time Source
GCXO METAR 2020/09/22 08:30 UTC NOAA

GCXO 220830Z VRB01KT CAVOK 26/04 Q1020 NOSIG


Station Type Date Time Source
GCXO Decoded METAR 2020/09/22 08:30 UTC NOAA

Tenerife / Los Rodeos, Spain (GCXO) 28-28N 016-19W 617M
Sep 22, 2020 - 04:30 AM EDT / 2020.09.22 0830 UTC
Wind: Variable at 1 MPH (1 KT):0
Visibility: greater than 7 mile(s):0
Temperature: 78 F (26 C)
Dew Point: 39 F (4 C)
Relative Humidity: 24%
Pressure (altimeter): 30.12 in. Hg (1020 hPa)
ob: GCXO 220830Z VRB01KT CAVOK 26/04 Q1020 NOSIG
cycle: 8

Station Type Date Time Source
GCXO TAF 2020/09/22 09:27 UTC NOAA

TAF GCXO 220800Z 2209/2309 13006KT CAVOK TX31/2214Z TN18/2306Z
BECMG 2213/2215 30010KT PROB30
TEMPO 2218/2223 2500 BCFG SCT002

Example: see airport list